sensor_id;sensor_type;location;lat;lon;timestamp;temperature;humidity
11304;DHT22;5707;49.588;12.148;2023-04-01T00:00:46;7.00;99.90
11304;DHT22;5707;49.588;12.148;2023-04-01T00:03:12;7.00;99.90
11304;DHT22;5707;49.588;12.148;2023-04-01T00:05:37;7.00;99.90
11304;DHT22;5707;49.588;12.148;2023-04-01T00:08:03;7.10;99.90
11304;DHT22;5707;49.588;12.148;2023-04-01T00:10:29;7.10;99.90
11304;DHT22;5707;49.588;12.148;2023-04-01T00:12:54;7.10;99.90
11304;DHT22;5707;49.588;12.148;2023-04-01T00:15:20;7.10;99.90
11304;DHT22;5707;49.588;12.148;2023-04-01T00:17:46;7.20;99.90
11304;DHT22;5707;49.588;12.148;2023-04-01T00:20:12;7.20;99.90
11304;DHT22;5707;49.588;12.148;2023-04-01T00:22:37;7.20;99.90
11304;DHT22;5707;49.588;12.148;2023-04-01T00:25:04;7.10;99.90
11304;DHT22;5707;49.588;12.148;2023-04-01T00:27:30;7.10;99.90
11304;DHT22;5707;49.588;12.148;2023-04-01T00:29:56;7.10;99.90
11304;DHT22;5707;49.588;12.148;2023-04-01T00:32:21;7.10;99.90
11304;DHT22;5707;49.588;12.148;2023-04-01T00:34:50;7.20;99.90
11304;DHT22;5707;49.588;12.148;2023-04-01T00:37:17;7.30;99.90
11304;DHT22;5707;49.588;12.148;2023-04-01T00:39:42;7.20;99.90
11304;DHT22;5707;49.588;12.148;2023-04-01T00:42:10;7.20;99.90
11304;DHT22;5707;49.588;12.148;2023-04-01T00:44:37;7.20;99.90
11304;DHT22;5707;49.588;12.148;2023-04-01T00:47:03;7.10;99.90
11304;DHT22;5707;49.588;12.148;2023-04-01T00:49:37;7.10;99.90
11304;DHT22;5707;49.588;12.148;2023-04-01T00:52:04;7.00;99.90
11304;DHT22;5707;49.588;12.148;2023-04-01T00:54:31;7.00;99.90
11304;DHT22;5707;49.588;12.148;2023-04-01T00:56:59;7.00;99.90
11304;DHT22;5707;49.588;12.148;2023-04-01T00:59:29;7.00;99.90
11304;DHT22;5707;49.588;12.148;2023-04-01T01:01:56;7.00;99.90
11304;DHT22;5707;49.588;12.148;2023-04-01T01:04:30;7.10;99.90
11304;DHT22;5707;49.588;12.148;2023-04-01T01:10:03;7.20;99.90
11304;DHT22;5707;49.588;12.148;2023-04-01T01:12:47;7.30;99.90
11304;DHT22;5707;49.588;12.148;2023-04-01T01:24:03;7.40;99.90
11304;DHT22;5707;49.588;12.148;2023-04-01T01:26:42;7.40;99.90
11304;DHT22;5707;49.588;12.148;2023-04-01T01:33:01;7.40;99.90
11304;DHT22;5707;49.588;12.148;2023-04-01T01:38:10;7.40;99.90
11304;DHT22;5707;49.588;12.148;2023-04-01T01:40:39;7.40;99.90
11304;DHT22;5707;49.588;12.148;2023-04-01T01:43:09;7.40;99.90
11304;DHT22;5707;49.588;12.148;2023-04-01T01:45:39;7.40;99.90
11304;DHT22;5707;49.588;12.148;2023-04-01T01:48:07;7.40;99.90
11304;DHT22;5707;49.588;12.148;2023-04-01T01:50:33;7.40;99.90
11304;DHT22;5707;49.588;12.148;2023-04-01T01:53:11;7.40;99.90
11304;DHT22;5707;49.588;12.148;2023-04-01T01:55:39;7.40;99.90
11304;DHT22;5707;49.588;12.148;2023-04-01T02:00:48;7.30;99.90
11304;DHT22;5707;49.588;12.148;2023-04-01T02:03:16;7.30;99.90
11304;DHT22;5707;49.588;12.148;2023-04-01T02:05:43;7.30;99.90
11304;DHT22;5707;49.588;12.148;2023-04-01T02:08:25;7.30;99.90
11304;DHT22;5707;49.588;12.148;2023-04-01T02:11:02;7.30;99.90
11304;DHT22;5707;49.588;12.148;2023-04-01T02:13:33;7.30;99.90
11304;DHT22;5707;49.588;12.148;2023-04-01T02:16:05;7.30;99.90
11304;DHT22;5707;49.588;12.148;2023-04-01T02:18:34;7.30;99.90
11304;DHT22;5707;49.588;12.148;2023-04-01T02:21:00;7.30;99.90
11304;DHT22;5707;49.588;12.148;2023-04-01T02:23:28;7.30;99.90
11304;DHT22;5707;49.588;12.148;2023-04-01T02:25:54;7.20;99.90
11304;DHT22;5707;49.588;12.148;2023-04-01T02:28:20;7.20;99.90
11304;DHT22;5707;49.588;12.148;2023-04-01T02:30:47;7.20;99.90
11304;DHT22;5707;49.588;12.148;2023-04-01T02:33:14;7.10;99.90
11304;DHT22;5707;49.588;12.148;2023-04-01T02:35:40;7.10;99.90
11304;DHT22;5707;49.588;12.148;2023-04-01T02:38:06;7.10;99.90
11304;DHT22;5707;49.588;12.148;2023-04-01T02:41:01;7.10;99.90
11304;DHT22;5707;49.588;12.148;2023-04-01T02:43:27;7.00;99.90
11304;DHT22;5707;49.588;12.148;2023-04-01T02:45:53;7.00;99.90
11304;DHT22;5707;49.588;12.148;2023-04-01T02:48:19;7.00;99.90
11304;DHT22;5707;49.588;12.148;2023-04-01T02:50:45;7.00;99.90
11304;DHT22;5707;49.588;12.148;2023-04-01T02:53:10;7.00;99.90
11304;DHT22;5707;49.588;12.148;2023-04-01T02:55:36;6.90;99.90
11304;DHT22;5707;49.588;12.148;2023-04-01T02:58:02;6.80;99.90
11304;DHT22;5707;49.588;12.148;2023-04-01T03:00:27;6.80;99.90
11304;DHT22;5707;49.588;12.148;2023-04-01T03:02:53;6.70;99.90
11304;DHT22;5707;49.588;12.148;2023-04-01T03:05:19;6.70;99.90
11304;DHT22;5707;49.588;12.148;2023-04-01T03:07:45;6.70;99.90
11304;DHT22;5707;49.588;12.148;2023-04-01T03:10:11;6.70;99.90
11304;DHT22;5707;49.588;12.148;2023-04-01T03:12:36;6.70;99.90
11304;DHT22;5707;49.588;12.148;2023-04-01T03:15:03;6.60;99.90
11304;DHT22;5707;49.588;12.148;2023-04-01T03:17:28;6.60;99.90
11304;DHT22;5707;49.588;12.148;2023-04-01T03:19:54;6.60;99.90
11304;DHT22;5707;49.588;12.148;2023-04-01T03:22:20;6.60;99.90
11304;DHT22;5707;49.588;12.148;2023-04-01T03:24:47;6.60;99.90
11304;DHT22;5707;49.588;12.148;2023-04-01T03:27:13;6.60;99.90
11304;DHT22;5707;49.588;12.148;2023-04-01T03:29:38;6.70;99.90
11304;DHT22;5707;49.588;12.148;2023-04-01T03:32:04;6.70;99.90
11304;DHT22;5707;49.588;12.148;2023-04-01T03:34:30;6.70;99.90
11304;DHT22;5707;49.588;12.148;2023-04-01T03:36:55;6.70;99.90
11304;DHT22;5707;49.588;12.148;2023-04-01T03:39:21;6.70;99.90
11304;DHT22;5707;49.588;12.148;2023-04-01T03:41:47;6.70;99.90
11304;DHT22;5707;49.588;12.148;2023-04-01T03:44:13;6.70;99.90
11304;DHT22;5707;49.588;12.148;2023-04-01T03:46:38;6.70;99.90
11304;DHT22;5707;49.588;12.148;2023-04-01T03:49:08;6.70;99.90
11304;DHT22;5707;49.588;12.148;2023-04-01T03:51:37;6.70;99.90
11304;DHT22;5707;49.588;12.148;2023-04-01T03:54:03;6.70;99.90
11304;DHT22;5707;49.588;12.148;2023-04-01T03:56:30;6.80;99.90
11304;DHT22;5707;49.588;12.148;2023-04-01T03:58:55;6.80;99.90
11304;DHT22;5707;49.588;12.148;2023-04-01T04:01:22;6.80;99.90
11304;DHT22;5707;49.588;12.148;2023-04-01T04:03:48;6.80;99.90
11304;DHT22;5707;49.588;12.148;2023-04-01T04:06:15;6.80;99.90
11304;DHT22;5707;49.588;12.148;2023-04-01T04:08:42;6.80;99.90
11304;DHT22;5707;49.588;12.148;2023-04-01T04:11:08;6.80;99.90
11304;DHT22;5707;49.588;12.148;2023-04-01T04:13:34;6.80;99.90
11304;DHT22;5707;49.588;12.148;2023-04-01T04:16:01;6.80;99.90
11304;DHT22;5707;49.588;12.148;2023-04-01T04:18:27;6.80;99.90
11304;DHT22;5707;49.588;12.148;2023-04-01T04:20:52;6.90;99.90
11304;DHT22;5707;49.588;12.148;2023-04-01T04:23:19;6.90;99.90
11304;DHT22;5707;49.588;12.148;2023-04-01T04:26:05;6.90;99.90
11304;DHT22;5707;49.588;12.148;2023-04-01T04:28:31;6.90;99.90
11304;DHT22;5707;49.588;12.148;2023-04-01T04:30:57;6.90;99.90
11304;DHT22;5707;49.588;12.148;2023-04-01T04:33:24;6.90;99.90
11304;DHT22;5707;49.588;12.148;2023-04-01T04:35:50;6.90;99.90
11304;DHT22;5707;49.588;12.148;2023-04-01T04:38:16;6.80;99.90
11304;DHT22;5707;49.588;12.148;2023-04-01T04:40:42;6.80;99.90
11304;DHT22;5707;49.588;12.148;2023-04-01T04:43:11;6.80;99.90
11304;DHT22;5707;49.588;12.148;2023-04-01T04:45:37;6.80;99.90
11304;DHT22;5707;49.588;12.148;2023-04-01T04:48:03;6.80;99.90
11304;DHT22;5707;49.588;12.148;2023-04-01T04:50:28;6.90;99.90
11304;DHT22;5707;49.588;12.148;2023-04-01T04:52:54;6.90;99.90
11304;DHT22;5707;49.588;12.148;2023-04-01T04:55:20;6.90;99.90
11304;DHT22;5707;49.588;12.148;2023-04-01T04:57:46;6.90;99.90
11304;DHT22;5707;49.588;12.148;2023-04-01T05:00:11;6.90;99.90
11304;DHT22;5707;49.588;12.148;2023-04-01T05:02:37;6.90;99.90
11304;DHT22;5707;49.588;12.148;2023-04-01T05:05:03;7.00;99.90
11304;DHT22;5707;49.588;12.148;2023-04-01T05:07:29;7.00;99.90
11304;DHT22;5707;49.588;12.148;2023-04-01T05:09:55;7.00;99.90
11304;DHT22;5707;49.588;12.148;2023-04-01T05:12:20;7.00;99.90
11304;DHT22;5707;49.588;12.148;2023-04-01T05:14:46;7.10;99.90
11304;DHT22;5707;49.588;12.148;2023-04-01T05:17:12;7.10;99.90
11304;DHT22;5707;49.588;12.148;2023-04-01T05:19:38;7.10;99.90
11304;DHT22;5707;49.588;12.148;2023-04-01T05:22:05;7.20;99.90
11304;DHT22;5707;49.588;12.148;2023-04-01T05:24:30;7.30;99.90
11304;DHT22;5707;49.588;12.148;2023-04-01T05:26:56;7.50;99.90
11304;DHT22;5707;49.588;12.148;2023-04-01T05:29:23;7.60;99.90
11304;DHT22;5707;49.588;12.148;2023-04-01T05:31:49;7.70;99.90
11304;DHT22;5707;49.588;12.148;2023-04-01T05:34:14;7.80;99.90
11304;DHT22;5707;49.588;12.148;2023-04-01T05:36:40;8.00;99.90
11304;DHT22;5707;49.588;12.148;2023-04-01T05:39:07;8.10;99.90
11304;DHT22;5707;49.588;12.148;2023-04-01T05:41:37;8.30;99.90
11304;DHT22;5707;49.588;12.148;2023-04-01T05:44:03;8.40;99.90
11304;DHT22;5707;49.588;12.148;2023-04-01T05:46:29;8.40;99.90
11304;DHT22;5707;49.588;12.148;2023-04-01T05:48:55;8.50;99.90
11304;DHT22;5707;49.588;12.148;2023-04-01T05:51:20;8.50;99.90
11304;DHT22;5707;49.588;12.148;2023-04-01T05:53:46;8.60;99.90
11304;DHT22;5707;49.588;12.148;2023-04-01T05:56:12;8.70;99.90
11304;DHT22;5707;49.588;12.148;2023-04-01T05:58:37;8.70;99.90
11304;DHT22;5707;49.588;12.148;2023-04-01T06:01:06;8.80;99.90
11304;DHT22;5707;49.588;12.148;2023-04-01T06:03:32;8.80;99.90
11304;DHT22;5707;49.588;12.148;2023-04-01T06:05:58;8.70;99.90
11304;DHT22;5707;49.588;12.148;2023-04-01T06:08:24;8.60;99.90
11304;DHT22;5707;49.588;12.148;2023-04-01T06:22:39;8.40;99.90
11304;DHT22;5707;49.588;12.148;2023-04-01T06:45:48;8.90;99.90
11304;DHT22;5707;49.588;12.148;2023-04-01T06:54:11;8.90;99.90
11304;DHT22;5707;49.588;12.148;2023-04-01T06:56:41;9.20;99.90
11304;DHT22;5707;49.588;12.148;2023-04-01T06:59:17;9.50;99.90
11304;DHT22;5707;49.588;12.148;2023-04-01T07:01:51;9.70;99.90
11304;DHT22;5707;49.588;12.148;2023-04-01T07:04:23;9.80;99.90
11304;DHT22;5707;49.588;12.148;2023-04-01T07:06:54;10.00;99.90
11304;DHT22;5707;49.588;12.148;2023-04-01T07:09:25;10.10;99.90
11304;DHT22;5707;49.588;12.148;2023-04-01T07:11:53;10.10;99.90
11304;DHT22;5707;49.588;12.148;2023-04-01T07:14:35;10.10;99.90
11304;DHT22;5707;49.588;12.148;2023-04-01T07:17:22;10.20;99.90
11304;DHT22;5707;49.588;12.148;2023-04-01T07:19:56;10.30;99.90
11304;DHT22;5707;49.588;12.148;2023-04-01T07:22:43;10.20;99.90
11304;DHT22;5707;49.588;12.148;2023-04-01T07:25:19;10.10;99.90
11304;DHT22;5707;49.588;12.148;2023-04-01T07:27:46;10.30;99.90
11304;DHT22;5707;49.588;12.148;2023-04-01T07:30:22;10.30;99.90
11304;DHT22;5707;49.588;12.148;2023-04-01T07:35:24;10.20;99.90
11304;DHT22;5707;49.588;12.148;2023-04-01T07:40:37;10.20;99.90
11304;DHT22;5707;49.588;12.148;2023-04-01T07:43:22;10.20;99.90
11304;DHT22;5707;49.588;12.148;2023-04-01T07:48:44;10.50;99.90
11304;DHT22;5707;49.588;12.148;2023-04-01T07:51:35;10.50;99.90
11304;DHT22;5707;49.588;12.148;2023-04-01T07:54:22;10.50;99.90
11304;DHT22;5707;49.588;12.148;2023-04-01T07:57:38;10.60;99.90
11304;DHT22;5707;49.588;12.148;2023-04-01T08:05:28;10.90;99.90
11304;DHT22;5707;49.588;12.148;2023-04-01T08:10:40;10.80;99.90
11304;DHT22;5707;49.588;12.148;2023-04-01T08:13:36;10.90;99.90
11304;DHT22;5707;49.588;12.148;2023-04-01T08:19:51;11.20;99.90
11304;DHT22;5707;49.588;12.148;2023-04-01T08:22:30;11.10;99.90
11304;DHT22;5707;49.588;12.148;2023-04-01T08:25:02;11.20;99.90
11304;DHT22;5707;49.588;12.148;2023-04-01T08:27:39;11.30;99.90
11304;DHT22;5707;49.588;12.148;2023-04-01T08:30:19;11.40;99.90
11304;DHT22;5707;49.588;12.148;2023-04-01T08:33:31;11.40;99.90
11304;DHT22;5707;49.588;12.148;2023-04-01T08:38:31;11.40;99.90
11304;DHT22;5707;49.588;12.148;2023-04-01T08:40:59;11.50;99.90
11304;DHT22;5707;49.588;12.148;2023-04-01T08:46:29;12.20;99.90
11304;DHT22;5707;49.588;12.148;2023-04-01T08:49:22;12.40;99.90
11304;DHT22;5707;49.588;12.148;2023-04-01T09:00:14;13.10;99.90
11304;DHT22;5707;49.588;12.148;2023-04-01T09:02:45;13.30;99.90
11304;DHT22;5707;49.588;12.148;2023-04-01T09:13:29;13.20;99.90
11304;DHT22;5707;49.588;12.148;2023-04-01T09:22:25;12.30;99.90
11304;DHT22;5707;49.588;12.148;2023-04-01T09:25:22;12.40;99.90
11304;DHT22;5707;49.588;12.148;2023-04-01T09:27:57;12.60;99.90
11304;DHT22;5707;49.588;12.148;2023-04-01T09:33:22;13.20;99.90
11304;DHT22;5707;49.588;12.148;2023-04-01T09:53:23;13.80;99.90
11304;DHT22;5707;49.588;12.148;2023-04-01T10:08:12;13.50;99.90
11304;DHT22;5707;49.588;12.148;2023-04-01T10:10:53;13.50;99.90
11304;DHT22;5707;49.588;12.148;2023-04-01T10:13:55;13.20;99.90
11304;DHT22;5707;49.588;12.148;2023-04-01T10:34:14;13.00;99.90
11304;DHT22;5707;49.588;12.148;2023-04-01T10:36:56;12.80;99.90
11304;DHT22;5707;49.588;12.148;2023-04-01T10:42:38;12.70;99.90
11304;DHT22;5707;49.588;12.148;2023-04-01T10:47:57;13.10;99.90
11304;DHT22;5707;49.588;12.148;2023-04-01T10:53:38;13.70;99.90
11304;DHT22;5707;49.588;12.148;2023-04-01T10:56:32;14.10;99.90
11304;DHT22;5707;49.588;12.148;2023-04-01T11:04:34;13.80;99.90
11304;DHT22;5707;49.588;12.148;2023-04-01T11:07:48;13.50;99.90
11304;DHT22;5707;49.588;12.148;2023-04-01T11:14:25;13.00;99.90
11304;DHT22;5707;49.588;12.148;2023-04-01T11:16:48;13.00;99.90
11304;DHT22;5707;49.588;12.148;2023-04-01T11:27:54;13.90;99.90
11304;DHT22;5707;49.588;12.148;2023-04-01T11:35:50;14.00;99.90
11304;DHT22;5707;49.588;12.148;2023-04-01T11:41:10;14.00;99.90
11304;DHT22;5707;49.588;12.148;2023-04-01T11:44:15;14.10;99.90
11304;DHT22;5707;49.588;12.148;2023-04-01T11:46:52;14.50;99.90
11304;DHT22;5707;49.588;12.148;2023-04-01T11:49:22;15.10;99.90
11304;DHT22;5707;49.588;12.148;2023-04-01T11:54:41;15.70;99.90
11304;DHT22;5707;49.588;12.148;2023-04-01T12:03:29;15.40;99.90
11304;DHT22;5707;49.588;12.148;2023-04-01T12:06:16;15.00;99.90
11304;DHT22;5707;49.588;12.148;2023-04-01T12:11:38;13.90;99.90
11304;DHT22;5707;49.588;12.148;2023-04-01T12:22:55;13.00;99.90
11304;DHT22;5707;49.588;12.148;2023-04-01T12:31:12;13.30;99.90
11304;DHT22;5707;49.588;12.148;2023-04-01T12:34:16;13.80;99.90
11304;DHT22;5707;49.588;12.148;2023-04-01T12:40:18;14.20;99.90
11304;DHT22;5707;49.588;12.148;2023-04-01T12:45:47;14.30;99.90
11304;DHT22;5707;49.588;12.148;2023-04-01T12:54:18;14.30;99.90
11304;DHT22;5707;49.588;12.148;2023-04-01T12:57:25;13.80;99.90
11304;DHT22;5707;49.588;12.148;2023-04-01T13:00:18;13.30;99.90
11304;DHT22;5707;49.588;12.148;2023-04-01T13:16:45;12.90;99.90
11304;DHT22;5707;49.588;12.148;2023-04-01T13:25:10;13.10;99.90
11304;DHT22;5707;49.588;12.148;2023-04-01T13:27:46;12.90;99.90
11304;DHT22;5707;49.588;12.148;2023-04-01T13:57:05;13.50;99.90
11304;DHT22;5707;49.588;12.148;2023-04-01T14:02:51;13.80;99.90
11304;DHT22;5707;49.588;12.148;2023-04-01T14:08:36;13.70;99.90
11304;DHT22;5707;49.588;12.148;2023-04-01T14:13:48;13.40;99.90
11304;DHT22;5707;49.588;12.148;2023-04-01T14:17:19;13.30;99.90
11304;DHT22;5707;49.588;12.148;2023-04-01T14:19:31;13.10;99.90
11304;DHT22;5707;49.588;12.148;2023-04-01T14:22:13;12.90;99.90
11304;DHT22;5707;49.588;12.148;2023-04-01T14:30:11;12.20;99.90
11304;DHT22;5707;49.588;12.148;2023-04-01T14:32:54;11.90;99.90
11304;DHT22;5707;49.588;12.148;2023-04-01T14:35:29;11.50;99.90
11304;DHT22;5707;49.588;12.148;2023-04-01T14:41:12;11.40;99.90
11304;DHT22;5707;49.588;12.148;2023-04-01T14:47:34;11.40;99.90
11304;DHT22;5707;49.588;12.148;2023-04-01T14:50:29;11.50;99.90
11304;DHT22;5707;49.588;12.148;2023-04-01T14:58:12;11.80;99.90
11304;DHT22;5707;49.588;12.148;2023-04-01T15:25:23;11.00;99.90
11304;DHT22;5707;49.588;12.148;2023-04-01T15:37:17;10.30;99.90
11304;DHT22;5707;49.588;12.148;2023-04-01T15:43:49;10.40;99.90
11304;DHT22;5707;49.588;12.148;2023-04-01T15:46:47;10.40;99.90
11304;DHT22;5707;49.588;12.148;2023-04-01T15:52:36;10.50;99.90
11304;DHT22;5707;49.588;12.148;2023-04-01T15:57:48;10.20;99.90
11304;DHT22;5707;49.588;12.148;2023-04-01T16:06:24;9.80;99.90
11304;DHT22;5707;49.588;12.148;2023-04-01T16:09:13;9.80;99.90
11304;DHT22;5707;49.588;12.148;2023-04-01T16:14:18;9.70;99.90
11304;DHT22;5707;49.588;12.148;2023-04-01T16:23:10;9.80;99.90
11304;DHT22;5707;49.588;12.148;2023-04-01T16:25:45;9.80;99.90
11304;DHT22;5707;49.588;12.148;2023-04-01T16:31:25;9.70;99.90
11304;DHT22;5707;49.588;12.148;2023-04-01T16:34:09;9.70;99.90
11304;DHT22;5707;49.588;12.148;2023-04-01T16:36:47;9.50;99.90
11304;DHT22;5707;49.588;12.148;2023-04-01T16:39:37;9.40;99.90
11304;DHT22;5707;49.588;12.148;2023-04-01T16:42:40;9.30;99.90
11304;DHT22;5707;49.588;12.148;2023-04-01T16:48:01;9.20;99.90
11304;DHT22;5707;49.588;12.148;2023-04-01T16:50:42;9.10;99.90
11304;DHT22;5707;49.588;12.148;2023-04-01T16:58:33;9.10;99.90
11304;DHT22;5707;49.588;12.148;2023-04-01T17:01:07;9.10;99.90
11304;DHT22;5707;49.588;12.148;2023-04-01T17:03:45;9.10;99.90
11304;DHT22;5707;49.588;12.148;2023-04-01T17:06:44;9.10;99.90
11304;DHT22;5707;49.588;12.148;2023-04-01T17:09:34;9.10;99.90
11304;DHT22;5707;49.588;12.148;2023-04-01T17:17:42;9.00;99.90
11304;DHT22;5707;49.588;12.148;2023-04-01T17:20:26;8.90;99.90
11304;DHT22;5707;49.588;12.148;2023-04-01T17:28:50;8.70;99.90
11304;DHT22;5707;49.588;12.148;2023-04-01T17:31:32;8.70;99.90
11304;DHT22;5707;49.588;12.148;2023-04-01T17:34:25;8.60;99.90
11304;DHT22;5707;49.588;12.148;2023-04-01T17:39:55;8.50;99.90
11304;DHT22;5707;49.588;12.148;2023-04-01T17:45:09;8.40;99.90
11304;DHT22;5707;49.588;12.148;2023-04-01T17:48:08;8.40;99.90
11304;DHT22;5707;49.588;12.148;2023-04-01T17:51:11;8.40;99.90
11304;DHT22;5707;49.588;12.148;2023-04-01T17:56:59;8.30;99.90
11304;DHT22;5707;49.588;12.148;2023-04-01T18:02:48;8.30;99.90
11304;DHT22;5707;49.588;12.148;2023-04-01T18:08:11;8.20;99.90
11304;DHT22;5707;49.588;12.148;2023-04-01T18:13:26;8.10;99.90
11304;DHT22;5707;49.588;12.148;2023-04-01T18:16:49;8.10;99.90
11304;DHT22;5707;49.588;12.148;2023-04-01T18:24:28;8.00;99.90
11304;DHT22;5707;49.588;12.148;2023-04-01T18:27:04;8.00;99.90
11304;DHT22;5707;49.588;12.148;2023-04-01T18:29:49;8.00;99.90
11304;DHT22;5707;49.588;12.148;2023-04-01T18:32:36;8.00;99.90
11304;DHT22;5707;49.588;12.148;2023-04-01T18:41:05;7.90;99.90
11304;DHT22;5707;49.588;12.148;2023-04-01T18:43:30;7.80;99.90
11304;DHT22;5707;49.588;12.148;2023-04-01T18:48:57;7.80;99.90
11304;DHT22;5707;49.588;12.148;2023-04-01T18:51:55;7.80;99.90
11304;DHT22;5707;49.588;12.148;2023-04-01T18:54:47;7.80;99.90
11304;DHT22;5707;49.588;12.148;2023-04-01T18:57:16;7.80;99.90
11304;DHT22;5707;49.588;12.148;2023-04-01T18:59:42;7.80;99.90
11304;DHT22;5707;49.588;12.148;2023-04-01T19:05:18;7.80;99.90
11304;DHT22;5707;49.588;12.148;2023-04-01T19:07:55;7.80;99.90
11304;DHT22;5707;49.588;12.148;2023-04-01T19:10:23;7.80;99.90
11304;DHT22;5707;49.588;12.148;2023-04-01T19:15:55;7.80;99.90
11304;DHT22;5707;49.588;12.148;2023-04-01T19:21:18;7.80;99.90
11304;DHT22;5707;49.588;12.148;2023-04-01T19:24:12;7.80;99.90
11304;DHT22;5707;49.588;12.148;2023-04-01T19:30:08;7.70;99.90
11304;DHT22;5707;49.588;12.148;2023-04-01T19:32:45;7.70;99.90
11304;DHT22;5707;49.588;12.148;2023-04-01T19:40:30;7.70;99.90
11304;DHT22;5707;49.588;12.148;2023-04-01T19:46:04;7.70;99.90
11304;DHT22;5707;49.588;12.148;2023-04-01T19:51:37;7.60;99.90
11304;DHT22;5707;49.588;12.148;2023-04-01T20:04:49;7.60;99.90
11304;DHT22;5707;49.588;12.148;2023-04-01T20:07:23;7.60;99.90
11304;DHT22;5707;49.588;12.148;2023-04-01T20:10:20;7.60;99.90
11304;DHT22;5707;49.588;12.148;2023-04-01T20:15:39;7.60;99.90
11304;DHT22;5707;49.588;12.148;2023-04-01T20:20:38;7.60;99.90
11304;DHT22;5707;49.588;12.148;2023-04-01T20:25:43;7.60;99.90
11304;DHT22;5707;49.588;12.148;2023-04-01T20:28:20;7.60;99.90
11304;DHT22;5707;49.588;12.148;2023-04-01T20:34:01;7.60;99.90
11304;DHT22;5707;49.588;12.148;2023-04-01T20:39:10;7.60;99.90
11304;DHT22;5707;49.588;12.148;2023-04-01T20:47:24;7.60;99.90
11304;DHT22;5707;49.588;12.148;2023-04-01T20:53:02;7.60;99.90
11304;DHT22;5707;49.588;12.148;2023-04-01T20:55:54;7.60;99.90
11304;DHT22;5707;49.588;12.148;2023-04-01T21:01:32;7.60;99.90
11304;DHT22;5707;49.588;12.148;2023-04-01T21:04:17;7.60;99.90
11304;DHT22;5707;49.588;12.148;2023-04-01T21:12:37;7.60;99.90
11304;DHT22;5707;49.588;12.148;2023-04-01T21:15:39;7.60;99.90
11304;DHT22;5707;49.588;12.148;2023-04-01T21:18:39;7.60;99.90
11304;DHT22;5707;49.588;12.148;2023-04-01T21:23:57;7.50;99.90
11304;DHT22;5707;49.588;12.148;2023-04-01T21:26:47;7.50;99.90
11304;DHT22;5707;49.588;12.148;2023-04-01T21:34:52;7.50;99.90
11304;DHT22;5707;49.588;12.148;2023-04-01T21:40:05;7.50;99.90
11304;DHT22;5707;49.588;12.148;2023-04-01T21:53:36;7.60;99.90
11304;DHT22;5707;49.588;12.148;2023-04-01T21:56:43;7.60;99.90
11304;DHT22;5707;49.588;12.148;2023-04-01T22:04:58;7.60;99.90
11304;DHT22;5707;49.588;12.148;2023-04-01T22:07:48;7.60;99.90
11304;DHT22;5707;49.588;12.148;2023-04-01T22:10:41;7.60;99.90
11304;DHT22;5707;49.588;12.148;2023-04-01T22:13:23;7.60;99.90
11304;DHT22;5707;49.588;12.148;2023-04-01T22:16:10;7.60;99.90
11304;DHT22;5707;49.588;12.148;2023-04-01T22:18:57;7.60;99.90
11304;DHT22;5707;49.588;12.148;2023-04-01T22:27:07;7.60;99.90
11304;DHT22;5707;49.588;12.148;2023-04-01T22:32:28;7.50;99.90
11304;DHT22;5707;49.588;12.148;2023-04-01T22:41:01;7.50;99.90
11304;DHT22;5707;49.588;12.148;2023-04-01T22:43:39;7.50;99.90
11304;DHT22;5707;49.588;12.148;2023-04-01T22:52:13;7.50;99.90
11304;DHT22;5707;49.588;12.148;2023-04-01T22:54:47;7.50;99.90
11304;DHT22;5707;49.588;12.148;2023-04-01T22:57:39;7.40;99.90
11304;DHT22;5707;49.588;12.148;2023-04-01T23:00:12;7.40;99.90
11304;DHT22;5707;49.588;12.148;2023-04-01T23:02:45;7.40;99.90
11304;DHT22;5707;49.588;12.148;2023-04-01T23:05:15;7.40;99.90
11304;DHT22;5707;49.588;12.148;2023-04-01T23:08:25;7.40;99.90
11304;DHT22;5707;49.588;12.148;2023-04-01T23:10:54;7.40;99.90
11304;DHT22;5707;49.588;12.148;2023-04-01T23:13:26;7.40;99.90
11304;DHT22;5707;49.588;12.148;2023-04-01T23:15:53;7.40;99.90
11304;DHT22;5707;49.588;12.148;2023-04-01T23:18:45;7.30;99.90
11304;DHT22;5707;49.588;12.148;2023-04-01T23:28:55;7.30;99.90
11304;DHT22;5707;49.588;12.148;2023-04-01T23:31:41;7.30;99.90
11304;DHT22;5707;49.588;12.148;2023-04-01T23:36:53;7.30;99.90
11304;DHT22;5707;49.588;12.148;2023-04-01T23:39:29;7.30;99.90
11304;DHT22;5707;49.588;12.148;2023-04-01T23:42:02;7.30;99.90
11304;DHT22;5707;49.588;12.148;2023-04-01T23:44:29;7.40;99.90
11304;DHT22;5707;49.588;12.148;2023-04-01T23:46:57;7.40;99.90
11304;DHT22;5707;49.588;12.148;2023-04-01T23:49:32;7.40;99.90
11304;DHT22;5707;49.588;12.148;2023-04-01T23:52:03;7.40;99.90
11304;DHT22;5707;49.588;12.148;2023-04-01T23:54:54;7.30;99.90
11304;DHT22;5707;49.588;12.148;2023-04-01T23:57:30;7.40;99.90
